Aérodrome :
LOGIN :

S'inscrire | Disclaimer

   EN    FR    IT 

 










Légende :    VFR   VFR Marginal   IFR   IFR Intensif   IFR Très Intensif
Visi : 
Plafond : 
>= 8 km
>= 3000ft
5 à 8 km
1000 à 3000 ft
1500m à 5 km
500 à 1000 ft
800 à 1500m
200 à 500 ft
< 800m
< 200 ft
Symboles :   Orages  Brouillard  Fortes neiges  Fortes précipitations  Vent > 20 kt
SIGMETs :   Divers  Orages  Givrage  Turbulence  Onde Orograph.  Cendres Volcan.






- Altitude de l'aérodrome : 306 ft
- Code IATA : EMA


EGNX - Nottingham East Midlands

DERNIER METAR :
  • 080620Z 20006KT 7000 NSC 00/M00 Q1034

METARs EXPIRÉS :
  • 080550Z 19006KT 6000 NSC M00/M01 Q1034
  • 080520Z 20006KT 5000 BR NSC 00/M01 Q1034
  • 080450Z 20005KT 5000 HZ NSC M00/M01 Q1035
  • 080420Z 20005KT 5000 HZ FEW016 00/M01 Q1035

TAF TAF EGNX
Valide du 08 à 06h jusqu'au 09 à 06h UTC


080455Z 0806/0906 VRB03KT 6000 FEW004
PROB40 0806/0810 0300 FZFG VV///
BECMG 0810/0813 19010KT CAVOK
PROB30
TEMPO 0818/0902 21015G25KT
PROB30 0821/0902 8000
BECMG 0902/0905 28005KT
TEMPO 0902/0906 8000 -RA BKN010
ATIS : +44 1332 852 852 (ext 3201)



MET'MAP, la Météo Aéronautique d'un coup d'oeil ! - Copyright ORBIFLY Décembre 2007 - Disclaimer

ORBIFLY MET'MAP TEAM :

Programmation & Développement : Alexandra Zaïnal
Sur une idée originale de : Baudouin d'Aumeries
Soutien technique & logistique : Manuel Goepfert
Assistance : Marc-Olivier Méhu




SOURCES & CREDITS :

   NOAA